createdAt,value
2019-05-11T00:01:11.990Z,34.93
2019-05-11T00:03:41.363Z,33.40
2019-05-11T00:06:10.723Z,34.27
2019-05-11T00:08:40.075Z,35.57
2019-05-11T00:11:09.473Z,34.37
2019-05-11T00:13:38.834Z,36.43
2019-05-11T00:16:08.198Z,35.50
2019-05-11T00:18:38.210Z,37.07
2019-05-11T00:21:07.568Z,37.83
2019-05-11T00:23:36.921Z,35.63
2019-05-11T00:26:06.278Z,34.60
2019-05-11T00:28:35.631Z,35.47
2019-05-11T00:31:05.184Z,35.03
2019-05-11T00:33:34.544Z,38.20
2019-05-11T00:36:03.981Z,36.13
2019-05-11T00:38:33.321Z,36.63
2019-05-11T00:41:02.672Z,35.37
2019-05-11T00:43:32.037Z,33.63
2019-05-11T00:46:01.392Z,37.13
2019-05-11T00:48:30.761Z,36.80
2019-05-11T00:51:01.176Z,37.80
2019-05-11T00:53:30.550Z,37.80
2019-05-11T00:55:59.899Z,36.20
2019-05-11T00:58:29.259Z,37.97
2019-05-11T01:00:58.612Z,36.67
2019-05-11T01:03:28.000Z,38.17
2019-05-11T01:05:57.355Z,38.30
2019-05-11T01:08:26.714Z,38.53
2019-05-11T01:10:56.071Z,37.33
2019-05-11T01:13:25.812Z,36.97
2019-05-11T01:15:55.165Z,42.30
2019-05-11T01:18:24.562Z,38.07
2019-05-11T01:20:53.942Z,38.13
2019-05-11T01:23:23.323Z,38.67
2019-05-11T01:25:52.696Z,38.43
2019-05-11T01:28:22.068Z,37.50
2019-05-11T01:30:51.443Z,39.23
2019-05-11T01:33:20.848Z,41.27
2019-05-11T01:35:51.194Z,41.03
2019-05-11T01:38:20.650Z,40.37
2019-05-11T01:40:58.912Z,38.20
2019-05-11T01:43:21.099Z,39.93
2019-05-11T01:45:50.457Z,38.13
2019-05-11T01:48:19.824Z,37.87
2019-05-11T01:50:49.176Z,38.00
2019-05-11T01:53:18.549Z,40.57
2019-05-11T01:55:47.928Z,39.67
2019-05-11T01:58:17.307Z,39.67
2019-05-11T02:00:46.670Z,38.10
2019-05-11T02:03:16.211Z,38.27
2019-05-11T02:05:45.601Z,38.23
2019-05-11T02:08:14.961Z,36.70
2019-05-11T02:10:44.394Z,38.27
2019-05-11T02:13:13.708Z,36.40
2019-05-11T02:15:43.073Z,37.90
2019-05-11T02:18:13.104Z,38.40
2019-05-11T02:20:42.501Z,38.90
2019-05-11T02:23:11.879Z,35.93
2019-05-11T02:25:41.225Z,37.00
2019-05-11T02:28:10.581Z,37.03
2019-05-11T02:30:39.957Z,37.90
2019-05-11T02:33:09.311Z,38.50
2019-05-11T02:35:38.724Z,38.70
2019-05-11T02:38:08.061Z,38.50
2019-05-11T02:40:37.458Z,39.10
2019-05-11T02:43:06.912Z,38.83
2019-05-11T02:45:40.989Z,40.30
2019-05-11T02:48:10.355Z,41.33
2019-05-11T02:50:39.779Z,39.23
2019-05-11T02:53:09.644Z,40.73
2019-05-11T02:55:39.551Z,40.03
2019-05-11T02:58:09.287Z,37.83
2019-05-11T03:00:43.979Z,39.63
2019-05-11T03:03:14.417Z,37.47
2019-05-11T03:05:43.769Z,39.10
2019-05-11T03:08:13.160Z,37.93
2019-05-11T03:10:42.517Z,40.83
2019-05-11T03:13:11.861Z,41.50
2019-05-11T03:15:41.291Z,39.03
2019-05-11T03:18:10.641Z,42.67
2019-05-11T03:20:40.010Z,43.13
2019-05-11T03:23:09.347Z,41.93
2019-05-11T03:25:38.748Z,42.00
2019-05-11T03:28:08.046Z,42.70
2019-05-11T03:30:37.420Z,43.27
2019-05-11T03:33:07.746Z,41.37
2019-05-11T03:35:38.114Z,46.37
2019-05-11T03:38:07.488Z,41.73
2019-05-11T03:40:36.850Z,43.80
2019-05-11T03:43:06.204Z,41.77
2019-05-11T03:45:35.566Z,42.47
2019-05-11T03:48:04.937Z,43.37
2019-05-11T03:50:34.311Z,44.33
2019-05-11T03:53:03.733Z,42.57
2019-05-11T03:55:33.111Z,43.20
2019-05-11T03:58:02.497Z,43.03
2019-05-11T04:00:31.866Z,44.67
2019-05-11T04:03:01.270Z,46.73
2019-05-11T04:05:30.757Z,46.47
2019-05-11T04:08:00.103Z,49.93
2019-05-11T04:10:29.478Z,48.33
2019-05-11T04:12:58.835Z,49.43
2019-05-11T04:15:28.192Z,46.90
2019-05-11T04:17:57.573Z,45.90
2019-05-11T04:20:26.931Z,46.63
2019-05-11T04:22:56.311Z,46.23
2019-05-11T04:25:25.687Z,48.13
2019-05-11T04:27:55.065Z,44.47
2019-05-11T04:30:24.419Z,49.10
2019-05-11T04:32:53.804Z,49.73
2019-05-11T04:35:23.202Z,44.60
2019-05-11T04:37:52.547Z,46.00
2019-05-11T04:40:21.947Z,48.83
2019-05-11T04:42:55.544Z,42.53
2019-05-11T04:45:22.439Z,44.00
2019-05-11T04:47:51.794Z,44.83
2019-05-11T04:50:21.163Z,43.87
2019-05-11T04:52:50.538Z,43.93
2019-05-11T04:55:20.940Z,47.13
2019-05-11T04:57:50.269Z,42.67
2019-05-11T05:00:20.217Z,44.90
2019-05-11T05:02:49.584Z,44.33
2019-05-11T05:05:18.946Z,44.50
2019-05-11T05:07:50.490Z,44.27
2019-05-11T05:10:21.935Z,46.43
2019-05-11T05:12:51.700Z,45.67
2019-05-11T05:15:21.525Z,48.03
2019-05-11T05:17:50.922Z,52.43
2019-05-11T05:20:20.268Z,52.23
2019-05-11T05:22:49.688Z,53.03
2019-05-11T05:25:19.053Z,52.97
2019-05-11T05:27:48.423Z,53.10
2019-05-11T05:30:17.865Z,54.33
2019-05-11T05:32:47.240Z,52.47
2019-05-11T05:35:16.755Z,52.77
2019-05-11T05:37:46.115Z,53.50
2019-05-11T05:40:16.618Z,52.53
2019-05-11T05:42:46.009Z,50.33
2019-05-11T05:45:15.363Z,51.40
2019-05-11T05:47:44.734Z,53.23
2019-05-11T05:50:14.585Z,52.23
2019-05-11T05:52:43.950Z,46.63
2019-05-11T05:55:13.670Z,52.53
2019-05-11T05:57:44.027Z,51.43
2019-05-11T06:00:13.633Z,49.27
2019-05-11T06:02:43.001Z,48.27
2019-05-11T06:05:12.538Z,51.00
2019-05-11T06:07:41.892Z,49.00
2019-05-11T06:10:11.602Z,51.40
2019-05-11T06:12:40.972Z,49.87
2019-05-11T06:15:10.478Z,50.90
2019-05-11T06:17:39.865Z,50.03
2019-05-11T06:20:10.075Z,48.20
2019-05-11T06:22:39.450Z,50.10
2019-05-11T06:25:08.981Z,49.17
2019-05-11T06:27:38.397Z,50.03
2019-05-11T06:30:08.301Z,48.17
2019-05-11T06:32:37.715Z,50.57
2019-05-11T06:35:08.695Z,49.50
2019-05-11T06:37:38.091Z,49.80
2019-05-11T06:40:07.981Z,51.07
2019-05-11T06:42:37.391Z,51.63
2019-05-11T06:45:07.196Z,53.30
2019-05-11T06:47:36.576Z,52.83
2019-05-11T06:50:07.201Z,52.37
2019-05-11T06:52:36.599Z,55.43
2019-05-11T06:55:06.437Z,52.80
2019-05-11T06:57:35.799Z,51.60
2019-05-11T07:00:06.147Z,54.50
2019-05-11T07:02:35.538Z,53.73
2019-05-11T07:05:06.774Z,52.13
2019-05-11T07:07:47.008Z,52.43
2019-05-11T07:10:07.869Z,53.77
2019-05-11T07:12:37.265Z,52.97
2019-05-11T07:15:07.203Z,53.70
2019-05-11T07:17:36.576Z,54.90
2019-05-11T07:20:08.028Z,53.67
2019-05-11T07:22:37.509Z,56.83
2019-05-11T07:25:07.590Z,58.73
2019-05-11T07:27:36.983Z,55.17
2019-05-11T07:30:07.934Z,58.67
2019-05-11T07:32:38.180Z,57.63
2019-05-11T07:35:09.031Z,58.73
2019-05-11T07:37:38.837Z,59.23
2019-05-11T07:40:09.104Z,58.53
2019-05-11T07:42:38.507Z,58.87
2019-05-11T07:45:09.324Z,56.87
2019-05-11T07:47:38.709Z,58.90
2019-05-11T07:50:09.005Z,56.07
2019-05-11T07:52:39.364Z,57.67
2019-05-11T07:55:08.893Z,58.80
2019-05-11T07:57:39.196Z,59.97
2019-05-11T08:00:10.312Z,59.83
2019-05-11T08:02:39.694Z,61.90
2019-05-11T08:05:09.410Z,60.20
2019-05-11T08:07:38.758Z,54.83
2019-05-11T08:10:08.545Z,56.03
2019-05-11T08:12:39.205Z,58.23
2019-05-11T08:15:13.225Z,55.97
2019-05-11T08:17:40.194Z,55.80
2019-05-11T08:20:09.890Z,54.83
2019-05-11T08:22:39.283Z,53.50
2019-05-11T08:25:09.359Z,52.73
2019-05-11T08:27:39.824Z,52.10
2019-05-11T08:30:13.841Z,54.17
2019-05-11T08:32:43.274Z,55.63
2019-05-11T08:35:12.794Z,55.23
2019-05-11T08:37:42.148Z,52.23
2019-05-11T08:40:15.539Z,53.77
2019-05-11T08:42:44.893Z,52.83
2019-05-11T08:45:20.150Z,53.10
2019-05-11T08:47:45.397Z,53.70
2019-05-11T08:50:15.619Z,51.93
2019-05-11T08:52:45.065Z,53.20
2019-05-11T08:55:14.563Z,51.43
2019-05-11T08:57:43.946Z,48.87
2019-05-11T09:00:14.371Z,45.70
2019-05-11T09:02:46.890Z,44.43
2019-05-11T09:05:14.881Z,43.43
2019-05-11T09:07:44.292Z,40.58
2019-05-11T09:10:14.708Z,39.20
2019-05-11T09:12:44.067Z,36.00
2019-05-11T09:15:28.081Z,36.43
2019-05-11T09:17:44.890Z,34.95
2019-05-11T09:20:14.610Z,34.20
2019-05-11T09:22:44.000Z,33.43
2019-05-11T09:25:13.506Z,34.18
2019-05-11T09:27:43.516Z,34.40
2019-05-11T09:30:13.312Z,34.85
2019-05-11T09:32:42.670Z,35.58
2019-05-11T09:35:13.659Z,35.33
2019-05-11T09:37:43.019Z,36.20
2019-05-11T09:40:12.536Z,32.67
2019-05-11T09:42:41.905Z,30.55
2019-05-11T09:45:11.531Z,31.07
2019-05-11T09:47:40.927Z,27.40
2019-05-11T09:50:10.452Z,26.00
2019-05-11T09:52:39.835Z,24.70
2019-05-11T09:55:09.310Z,24.00
2019-05-11T09:57:38.669Z,23.18
2019-05-11T10:00:08.883Z,21.70
2019-05-11T10:02:38.757Z,21.68
2019-05-11T10:05:08.898Z,22.05
2019-05-11T10:07:38.397Z,21.12
2019-05-11T10:10:09.513Z,21.65
2019-05-11T10:12:39.775Z,23.30
2019-05-11T10:15:09.408Z,21.45
2019-05-11T10:17:38.762Z,20.55
2019-05-11T10:20:09.520Z,22.17
2019-05-11T10:22:38.930Z,22.75
2019-05-11T10:25:09.151Z,23.73
2019-05-11T10:27:38.657Z,23.00
2019-05-11T10:30:09.243Z,24.57
2019-05-11T10:32:39.270Z,25.97
2019-05-11T10:35:08.891Z,24.80
2019-05-11T10:37:39.123Z,23.92
2019-05-11T10:40:09.982Z,24.02
2019-05-11T10:42:39.392Z,23.52
2019-05-11T10:45:09.286Z,22.22
2019-05-11T10:47:39.818Z,22.02
2019-05-11T10:50:09.638Z,22.62
2019-05-11T10:52:39.025Z,21.17
2019-05-11T10:55:09.348Z,20.60
2019-05-11T10:57:38.971Z,18.25
2019-05-11T11:00:09.773Z,17.77
2019-05-11T11:02:39.139Z,16.55
2019-05-11T11:05:08.664Z,14.65
2019-05-11T11:07:38.527Z,14.30
2019-05-11T11:10:09.031Z,14.63
2019-05-11T11:12:38.810Z,14.03
2019-05-11T11:15:09.938Z,12.90
2019-05-11T11:17:39.322Z,12.90
2019-05-11T11:20:09.715Z,12.58
2019-05-11T11:22:43.382Z,12.60
2019-05-11T11:25:10.501Z,12.13
2019-05-11T11:27:39.873Z,12.47
2019-05-11T11:30:10.539Z,12.60
2019-05-11T11:32:39.931Z,12.17
2019-05-11T11:35:09.518Z,12.55
2019-05-11T11:37:38.935Z,13.40
2019-05-11T11:40:08.729Z,13.10
2019-05-11T11:42:38.119Z,13.28
2019-05-11T11:45:09.594Z,12.78
2019-05-11T11:47:38.979Z,12.45
2019-05-11T11:50:09.474Z,12.50
2019-05-11T11:52:38.888Z,13.10
2019-05-11T11:55:09.692Z,11.33
2019-05-11T11:57:39.078Z,12.47
2019-05-11T12:00:09.351Z,10.68
2019-05-11T12:02:39.031Z,10.90
2019-05-11T12:05:08.897Z,10.53
2019-05-11T12:07:38.785Z,11.10
2019-05-11T12:10:09.035Z,11.28
2019-05-11T12:12:38.780Z,11.18
2019-05-11T12:15:09.001Z,10.93
2019-05-11T12:17:38.558Z,11.35
2019-05-11T12:20:08.978Z,11.55
2019-05-11T12:22:38.815Z,10.72
2019-05-11T12:25:09.039Z,9.30
2019-05-11T12:27:38.645Z,8.73
2019-05-11T12:30:09.474Z,9.05
2019-05-11T12:32:40.507Z,9.05
2019-05-11T12:35:09.926Z,8.63
2019-05-11T12:37:39.270Z,8.40
2019-05-11T12:40:10.187Z,8.53
2019-05-11T12:42:39.526Z,7.92
2019-05-11T12:45:10.430Z,8.55
2019-05-11T12:47:39.832Z,8.95
2019-05-11T12:50:10.127Z,8.68
2019-05-11T12:52:39.514Z,8.45
2019-05-11T12:55:09.425Z,7.42
2019-05-11T12:57:38.841Z,8.43
2019-05-11T13:00:08.846Z,9.73
2019-05-11T13:02:38.814Z,9.00
2019-05-11T13:05:08.884Z,8.97
2019-05-11T13:07:39.182Z,8.57
2019-05-11T13:10:09.220Z,9.30
2019-05-11T13:12:39.306Z,8.57
2019-05-11T13:15:09.116Z,9.17
2019-05-11T13:17:41.030Z,8.67
2019-05-11T13:20:12.777Z,8.80
2019-05-11T13:22:41.799Z,8.13
2019-05-11T13:25:11.270Z,7.10
2019-05-11T13:27:40.624Z,6.90
2019-05-11T13:30:10.448Z,6.83
2019-05-11T13:32:39.801Z,6.90
2019-05-11T13:35:09.400Z,7.67
2019-05-11T13:37:38.897Z,7.60
2019-05-11T13:40:08.957Z,7.17
2019-05-11T13:42:38.688Z,7.80
2019-05-11T13:45:08.701Z,7.23
2019-05-11T13:47:51.254Z,6.83
2019-05-11T13:50:09.376Z,6.67
2019-05-11T13:52:38.801Z,6.57
2019-05-11T13:55:08.245Z,7.23
2019-05-11T13:57:38.361Z,6.97
2019-05-11T14:00:08.698Z,6.93
2019-05-11T14:02:38.200Z,6.40
2019-05-11T14:05:09.034Z,6.80
2019-05-11T14:07:38.448Z,6.70
2019-05-11T14:10:09.251Z,6.00
2019-05-11T14:12:38.834Z,6.10
2019-05-11T14:15:09.389Z,5.73
2019-05-11T14:17:38.778Z,5.37
2019-05-11T14:20:09.235Z,5.75
2019-05-11T14:22:39.225Z,5.70
2019-05-11T14:25:09.129Z,6.17
2019-05-11T14:27:39.228Z,5.60
2019-05-11T14:30:09.600Z,5.60
2019-05-11T14:32:39.116Z,4.83
2019-05-11T14:35:12.047Z,5.60
2019-05-11T14:37:39.996Z,5.90
2019-05-11T14:40:09.527Z,5.37
2019-05-11T14:42:38.895Z,4.87
2019-05-11T14:45:09.383Z,5.10
2019-05-11T14:47:42.169Z,5.28
2019-05-11T14:50:09.964Z,5.30
2019-05-11T14:52:39.344Z,4.90
2019-05-11T14:55:10.332Z,5.20
2019-05-11T14:57:39.875Z,6.35
2019-05-11T15:00:09.473Z,5.08
2019-05-11T15:02:49.140Z,5.20
2019-05-11T15:05:20.434Z,5.10
2019-05-11T15:07:52.392Z,5.25
2019-05-11T15:10:21.163Z,8.10
2019-05-11T15:12:50.509Z,5.92
2019-05-11T15:15:20.131Z,5.35
2019-05-11T15:17:49.641Z,5.00
2019-05-11T15:20:18.992Z,4.47
2019-05-11T15:22:49.050Z,5.10
2019-05-11T15:25:19.700Z,4.90
2019-05-11T15:27:49.189Z,5.00
2019-05-11T15:30:19.114Z,4.70
2019-05-11T15:32:48.624Z,5.12
2019-05-11T15:35:18.768Z,4.83
2019-05-11T15:37:48.504Z,4.77
2019-05-11T15:40:19.177Z,4.17
2019-05-11T15:42:48.941Z,4.23
2019-05-11T15:45:20.275Z,4.73
2019-05-11T15:47:49.648Z,4.37
2019-05-11T15:50:19.705Z,4.53
2019-05-11T15:52:49.282Z,4.00
2019-05-11T15:55:19.483Z,4.20
2019-05-11T15:57:48.885Z,3.60
2019-05-11T16:00:19.083Z,3.55
2019-05-11T16:02:49.153Z,3.50
2019-05-11T16:05:19.526Z,3.03
2019-05-11T16:07:49.470Z,3.35
2019-05-11T16:10:19.239Z,3.72
2019-05-11T16:12:49.119Z,3.95
2019-05-11T16:15:19.539Z,3.27
2019-05-11T16:17:49.672Z,3.27
2019-05-11T16:20:19.278Z,3.30
2019-05-11T16:22:48.664Z,3.33
2019-05-11T16:25:19.749Z,3.08
2019-05-11T16:27:49.451Z,3.20
2019-05-11T16:30:21.653Z,2.85
2019-05-11T16:32:50.465Z,2.63
2019-05-11T16:35:20.077Z,3.10
2019-05-11T16:37:49.451Z,7.90
2019-05-11T16:40:20.831Z,4.27
2019-05-11T16:42:50.192Z,3.37
2019-05-11T16:45:21.615Z,2.87
2019-05-11T16:47:50.727Z,2.53
2019-05-11T16:50:20.272Z,2.90
2019-05-11T16:52:49.629Z,2.57
2019-05-11T16:55:18.976Z,3.03
2019-05-11T16:57:48.987Z,2.90
2019-05-11T17:00:18.932Z,2.60
2019-05-11T17:02:49.227Z,2.30
2019-05-11T17:05:26.272Z,2.60
2019-05-11T17:07:49.888Z,2.27
2019-05-11T17:10:20.353Z,2.70
2019-05-11T17:12:50.683Z,2.43
2019-05-11T17:15:20.044Z,2.60
2019-05-11T17:17:49.680Z,2.67
2019-05-11T17:20:19.435Z,2.63
2019-05-11T17:22:49.259Z,1.90
2019-05-11T17:25:19.586Z,2.70
2019-05-11T17:27:49.406Z,2.57
2019-05-11T17:30:20.052Z,2.00
2019-05-11T17:32:49.968Z,2.80
2019-05-11T17:35:19.495Z,2.93
2019-05-11T17:37:49.832Z,2.67
2019-05-11T17:40:23.423Z,2.80
2019-05-11T17:42:53.508Z,2.27
2019-05-11T17:45:21.730Z,2.53
2019-05-11T17:47:51.078Z,3.13
2019-05-11T17:50:20.427Z,2.50
2019-05-11T17:52:49.798Z,2.40
2019-05-11T17:55:20.135Z,2.73
2019-05-11T17:57:53.385Z,5.03
2019-05-11T18:00:20.737Z,4.17
2019-05-11T18:02:50.265Z,2.90
2019-05-11T18:05:19.637Z,2.70
2019-05-11T18:07:49.010Z,2.83
2019-05-11T18:10:18.600Z,3.20
2019-05-11T18:12:48.648Z,3.03
2019-05-11T18:15:19.192Z,2.77
2019-05-11T18:17:49.073Z,2.63
2019-05-11T18:20:21.765Z,2.50
2019-05-11T18:22:49.896Z,2.87
2019-05-11T18:25:19.268Z,3.20
2019-05-11T18:27:48.635Z,2.60
2019-05-11T18:30:18.458Z,3.57
2019-05-11T18:32:49.001Z,3.10
2019-05-11T18:35:19.919Z,3.00
2019-05-11T18:37:50.258Z,3.10
2019-05-11T18:40:19.631Z,2.27
2019-05-11T18:42:49.221Z,2.77
2019-05-11T18:45:19.216Z,2.90
2019-05-11T18:47:49.231Z,2.70
2019-05-11T18:50:29.788Z,2.63
2019-05-11T18:52:49.898Z,3.00
2019-05-11T18:55:19.407Z,3.20
2019-05-11T18:57:49.424Z,2.50
2019-05-11T19:00:19.745Z,2.83
2019-05-11T19:02:49.747Z,2.93
2019-05-11T19:05:19.317Z,2.90
2019-05-11T19:07:48.695Z,2.60
2019-05-11T19:10:18.120Z,2.83
2019-05-11T19:12:48.804Z,2.67
2019-05-11T19:15:19.076Z,2.80
2019-05-11T19:17:49.276Z,5.37
2019-05-11T19:20:18.776Z,3.73
2019-05-11T19:22:48.217Z,3.70
2019-05-11T19:25:18.193Z,4.03
2019-05-11T19:27:50.362Z,5.70
2019-05-11T19:30:20.143Z,3.60
2019-05-11T19:32:49.505Z,3.60
2019-05-11T19:35:21.178Z,3.83
2019-05-11T19:37:49.945Z,3.10
2019-05-11T19:40:19.296Z,2.67
2019-05-11T19:42:55.811Z,3.07
2019-05-11T19:45:25.376Z,3.93
2019-05-11T19:47:54.729Z,3.27
2019-05-11T19:50:24.086Z,2.70
2019-05-11T19:52:53.465Z,2.70
2019-05-11T19:55:22.838Z,3.60
2019-05-11T19:57:52.207Z,4.60
2019-05-11T20:00:21.841Z,3.00
2019-05-11T20:02:51.182Z,2.60
2019-05-11T20:05:20.553Z,2.70
2019-05-11T20:07:49.912Z,2.97
2019-05-11T20:10:19.378Z,2.67
2019-05-11T20:12:48.824Z,3.00
2019-05-11T20:15:19.142Z,2.53
2019-05-11T20:17:49.562Z,3.27
2019-05-11T20:20:19.072Z,2.40
2019-05-11T20:22:48.836Z,2.50
2019-05-11T20:25:19.123Z,3.20
2019-05-11T20:27:50.090Z,2.80
2019-05-11T20:30:19.620Z,2.43
2019-05-11T20:32:49.437Z,2.73
2019-05-11T20:35:18.973Z,2.70
2019-05-11T20:37:48.431Z,2.50
2019-05-11T20:40:19.196Z,2.53
2019-05-11T20:42:48.851Z,2.37
2019-05-11T20:45:18.719Z,2.50
2019-05-11T20:47:48.842Z,2.43
2019-05-11T20:50:18.759Z,2.30
2019-05-11T20:52:48.573Z,2.37
2019-05-11T20:55:18.470Z,2.10
2019-05-11T20:57:48.624Z,2.20
2019-05-11T21:00:19.329Z,2.10
2019-05-11T21:02:49.215Z,2.43
2019-05-11T21:05:18.730Z,2.50
2019-05-11T21:07:48.037Z,2.33
2019-05-11T21:10:17.669Z,2.63
2019-05-11T21:12:47.019Z,2.53
2019-05-11T21:15:16.560Z,3.33
2019-05-11T21:17:48.192Z,2.60
2019-05-11T21:20:18.128Z,2.93
2019-05-11T21:22:48.692Z,2.53
2019-05-11T21:25:18.415Z,2.80
2019-05-11T21:27:48.663Z,2.30
2019-05-11T21:30:18.649Z,2.60
2019-05-11T21:32:48.909Z,2.43
2019-05-11T21:35:19.142Z,2.53
2019-05-11T21:37:48.951Z,2.93
2019-05-11T21:40:18.415Z,2.67
2019-05-11T21:42:47.860Z,2.47
2019-05-11T21:45:18.327Z,2.50
2019-05-11T21:47:49.076Z,2.83
2019-05-11T21:50:19.477Z,2.57
2019-05-11T21:52:48.807Z,3.13
2019-05-11T21:55:19.123Z,2.80
2019-05-11T21:57:49.817Z,2.40
2019-05-11T22:00:20.151Z,2.90
2019-05-11T22:02:51.124Z,2.80
2019-05-11T22:05:21.056Z,2.47
2019-05-11T22:07:50.379Z,2.47
2019-05-11T22:10:19.808Z,2.70
2019-05-11T22:12:49.197Z,2.83
2019-05-11T22:15:18.515Z,2.73
2019-05-11T22:17:48.165Z,2.80
2019-05-11T22:20:18.419Z,2.57
2019-05-11T22:22:48.913Z,2.70
2019-05-11T22:25:18.553Z,2.53
2019-05-11T22:27:48.821Z,2.77
2019-05-11T22:30:18.787Z,2.70
2019-05-11T22:32:49.109Z,2.90
2019-05-11T22:35:18.635Z,2.73
2019-05-11T22:37:49.048Z,2.93
2019-05-11T22:40:18.789Z,2.90
2019-05-11T22:42:48.135Z,2.83
2019-05-11T22:45:18.674Z,2.93
2019-05-11T22:47:48.782Z,3.23
2019-05-11T22:50:18.848Z,2.80
2019-05-11T22:52:48.593Z,3.20
2019-05-11T22:55:19.194Z,2.80
2019-05-11T22:57:48.805Z,2.90
2019-05-11T23:00:21.267Z,3.10
2019-05-11T23:02:50.609Z,2.63
2019-05-11T23:05:19.983Z,3.17
2019-05-11T23:07:49.371Z,3.40
2019-05-11T23:10:18.710Z,2.93
2019-05-11T23:12:48.358Z,2.97
2019-05-11T23:15:19.184Z,2.60
2019-05-11T23:17:48.544Z,3.47
2019-05-11T23:20:18.119Z,2.83
2019-05-11T23:22:56.738Z,2.97
2019-05-11T23:25:19.642Z,3.07
2019-05-11T23:27:49.150Z,2.80
2019-05-11T23:30:19.799Z,3.30
2019-05-11T23:32:50.751Z,3.33
2019-05-11T23:35:20.136Z,2.73
2019-05-11T23:37:50.154Z,3.00
2019-05-11T23:40:19.984Z,3.10
2019-05-11T23:42:49.490Z,3.03
2019-05-11T23:45:19.414Z,3.70
2019-05-11T23:47:49.265Z,3.40
2019-05-11T23:50:19.336Z,3.30
2019-05-11T23:53:05.167Z,3.10
2019-05-11T23:55:20.192Z,2.93
2019-05-11T23:57:49.719Z,2.80
